Decoded Metar for SBRF (RECIFE in BRAZIL) (IATA:REC) | Meteo·Mobile Aviation Weather
aviador You're here:

SBRF Decoded Metar

RECIFE in BRAZIL
Report Time2019-03-21 15:00:00
UTC Time2019-03-21 15:33:29
Flight Rules mvfr MVFR
Wind060° at 09 kt
W.Decomp.*RWY 36: 1.3 kt HW 8.9 kt RCW
W.Rank060° ranks 15
Current wind is above 060° avg. (6.3)
Visibility9999 m
Phenomena:N/A
Clouds:Broken 025 Hf
Expected CloudBase > 2,800 ft AGL from Temp-Dew spread
Ceiling2,500 ft
Temp31°C (ISA +16)
Dew Point24°C (66% RH)
Heat Index36.4°C
QNH1010 hPa
Density Alt2,398 ft
Elevation62 ft
Report Wrong Elevation
Raw Report
METAR SBRF 211500Z 06009KT 010V090 9999 BKN025 31/24 Q1010=

Extra information for SBRF:More info

Metar Taf Metar & Taf Last 4 Metars F.Rules Stats Wind Profile Meteogram Temp Stats Airport Information Weather charts Add Link Nearby VenuesMetar ALERT Operation Metar Decoded Social comments